createdAt,value
2022-09-07T00:01:16.543Z,37.53
2022-09-07T00:03:43.693Z,37.56
2022-09-07T00:06:11.611Z,37.62
2022-09-07T00:08:39.132Z,37.69
2022-09-07T00:11:07.928Z,37.65
2022-09-07T00:13:36.127Z,37.70
2022-09-07T00:16:09.609Z,37.84
2022-09-07T00:18:36.670Z,37.79
2022-09-07T00:21:08.851Z,37.83
2022-09-07T00:23:36.821Z,37.87
2022-09-07T00:26:08.690Z,37.90
2022-09-07T00:28:36.865Z,37.80
2022-09-07T00:31:05.479Z,37.76
2022-09-07T00:33:32.402Z,37.96
2022-09-07T00:35:59.483Z,38.04
2022-09-07T00:38:26.553Z,38.11
2022-09-07T00:40:53.575Z,38.21
2022-09-07T00:43:41.414Z,38.27
2022-09-07T00:46:13.450Z,38.41
2022-09-07T00:48:46.894Z,38.69
2022-09-07T00:51:17.465Z,38.50
2022-09-07T00:53:48.977Z,38.64
2022-09-07T00:56:15.933Z,38.74
2022-09-07T00:58:43.019Z,38.88
2022-09-07T01:01:10.452Z,38.87
2022-09-07T01:03:41.347Z,39.11
2022-09-07T01:06:20.324Z,39.16
2022-09-07T01:08:48.501Z,39.38
2022-09-07T01:11:15.568Z,39.24
2022-09-07T01:13:43.527Z,39.20
2022-09-07T01:16:36.798Z,39.32
2022-09-07T01:19:06.823Z,39.43
2022-09-07T01:21:52.726Z,39.51
2022-09-07T01:24:22.657Z,39.64
2022-09-07T01:27:21.849Z,39.67
2022-09-07T01:30:01.298Z,39.74
2022-09-07T01:32:50.371Z,39.80
2022-09-07T01:35:54.392Z,39.62
2022-09-07T01:38:44.594Z,39.54
2022-09-07T01:41:22.908Z,39.73
2022-09-07T01:44:01.228Z,39.99
2022-09-07T01:46:29.843Z,39.86
2022-09-07T01:49:36.442Z,39.78
2022-09-07T01:52:14.525Z,40.23
2022-09-07T01:54:47.018Z,39.90
2022-09-07T01:57:21.619Z,40.34
2022-09-07T01:59:52.483Z,40.59
2022-09-07T02:02:21.765Z,40.62
2022-09-07T02:05:05.325Z,40.70
2022-09-07T02:07:46.720Z,40.96
2022-09-07T02:10:20.468Z,40.75
2022-09-07T02:13:07.256Z,40.96
2022-09-07T02:15:45.298Z,41.20
2022-09-07T02:18:14.314Z,41.31
2022-09-07T02:20:45.131Z,41.52
2022-09-07T02:23:15.111Z,41.41
2022-09-07T02:25:55.246Z,41.63
2022-09-07T02:28:30.126Z,41.83
2022-09-07T02:30:57.344Z,41.66
2022-09-07T02:33:24.324Z,41.84
2022-09-07T02:35:51.380Z,42.05
2022-09-07T02:38:18.642Z,42.08
2022-09-07T02:40:56.546Z,42.07
2022-09-07T02:43:24.117Z,42.19
2022-09-07T02:45:54.193Z,42.51
2022-09-07T02:48:24.289Z,42.56
2022-09-07T02:51:20.407Z,42.56
2022-09-07T02:54:13.259Z,42.67
2022-09-07T02:57:08.160Z,42.77
2022-09-07T02:59:53.645Z,42.80
2022-09-07T03:02:35.830Z,42.72
2022-09-07T03:05:05.869Z,42.82
2022-09-07T03:07:44.066Z,42.89
2022-09-07T03:10:11.872Z,42.87
2022-09-07T03:12:46.830Z,42.82
2022-09-07T03:15:15.627Z,42.82
2022-09-07T03:17:42.552Z,42.99
2022-09-07T03:20:09.917Z,42.96
2022-09-07T03:22:36.975Z,42.99
2022-09-07T03:25:04.677Z,42.98
2022-09-07T03:27:32.488Z,42.88
2022-09-07T03:30:00.039Z,43.06
2022-09-07T03:32:32.404Z,43.03
2022-09-07T03:35:00.138Z,42.95
2022-09-07T03:37:27.353Z,42.98
2022-09-07T03:39:56.003Z,42.97
2022-09-07T03:42:23.338Z,42.98
2022-09-07T03:44:50.395Z,43.00
2022-09-07T03:47:17.763Z,43.09
2022-09-07T03:49:44.820Z,43.09
2022-09-07T03:52:12.133Z,43.11
2022-09-07T03:54:39.955Z,43.11
2022-09-07T03:57:07.106Z,43.07
2022-09-07T03:59:34.288Z,43.16
2022-09-07T04:02:01.885Z,43.41
2022-09-07T04:04:29.316Z,43.42
2022-09-07T04:06:56.373Z,43.52
2022-09-07T04:09:23.426Z,43.46
2022-09-07T04:11:50.492Z,43.54
2022-09-07T04:14:18.155Z,43.45
2022-09-07T04:16:45.795Z,43.46
2022-09-07T04:19:12.887Z,43.61
2022-09-07T04:21:40.199Z,43.71
2022-09-07T04:24:07.621Z,43.65
2022-09-07T04:26:36.619Z,43.58
2022-09-07T04:29:04.285Z,43.70
2022-09-07T04:31:32.052Z,44.14
2022-09-07T04:33:59.510Z,44.21
2022-09-07T04:36:26.763Z,44.32
2022-09-07T04:38:59.851Z,44.42
2022-09-07T04:41:27.822Z,44.09
2022-09-07T04:43:56.907Z,44.04
2022-09-07T04:46:27.991Z,44.04
2022-09-07T04:48:59.204Z,43.95
2022-09-07T04:51:28.307Z,43.94
2022-09-07T04:53:56.268Z,43.88
2022-09-07T04:56:23.726Z,43.62
2022-09-07T04:58:50.776Z,43.53
2022-09-07T05:01:19.750Z,43.29
2022-09-07T05:03:47.154Z,43.35
2022-09-07T05:06:14.796Z,43.28
2022-09-07T05:08:43.914Z,43.21
2022-09-07T05:11:11.598Z,42.98
2022-09-07T05:13:39.106Z,42.84
2022-09-07T05:16:10.595Z,42.64
2022-09-07T05:18:37.916Z,42.53
2022-09-07T05:21:16.028Z,42.71
2022-09-07T05:23:43.211Z,42.46
2022-09-07T05:26:10.671Z,42.40
2022-09-07T05:28:38.000Z,42.26
2022-09-07T05:31:17.504Z,41.92
2022-09-07T05:36:39.697Z,42.01
2022-09-07T05:39:06.596Z,41.70
2022-09-07T05:41:33.694Z,41.68
2022-09-07T05:46:47.865Z,41.19
2022-09-07T05:49:14.811Z,40.97
2022-09-07T05:51:41.777Z,40.92
2022-09-07T05:54:08.707Z,40.63
2022-09-07T05:56:36.409Z,40.48
2022-09-07T05:59:03.834Z,40.56
2022-09-07T06:01:30.953Z,40.57
2022-09-07T06:03:58.962Z,40.26
2022-09-07T06:06:26.816Z,39.60
2022-09-07T06:08:53.967Z,39.26
2022-09-07T06:11:22.279Z,39.38
2022-09-07T06:13:49.527Z,39.25
2022-09-07T06:16:18.547Z,38.92
2022-09-07T06:18:47.107Z,38.59
2022-09-07T06:21:15.632Z,38.55
2022-09-07T06:23:43.591Z,38.29
2022-09-07T06:26:10.978Z,38.08
2022-09-07T06:28:39.564Z,37.81
2022-09-07T06:31:14.810Z,37.55
2022-09-07T06:33:43.691Z,36.97
2022-09-07T06:36:15.223Z,36.83
2022-09-07T06:38:42.734Z,36.61
2022-09-07T06:44:07.557Z,35.74
2022-09-07T06:49:23.728Z,33.48
2022-09-07T06:51:50.777Z,33.72
2022-09-07T06:57:09.508Z,34.72
2022-09-07T06:59:37.250Z,34.21
2022-09-07T07:02:06.011Z,31.57
2022-09-07T07:04:39.471Z,33.05
2022-09-07T07:07:12.354Z,33.78
2022-09-07T07:09:40.248Z,32.45
2022-09-07T07:12:07.266Z,31.67
2022-09-07T07:14:38.467Z,32.34
2022-09-07T07:17:08.361Z,31.83
2022-09-07T07:19:35.812Z,32.21
2022-09-07T07:22:18.673Z,32.84
2022-09-07T07:24:49.878Z,32.87
2022-09-07T07:27:17.788Z,32.40
2022-09-07T07:29:45.625Z,31.76
2022-09-07T07:32:13.392Z,32.18
2022-09-07T07:34:40.240Z,32.16
2022-09-07T07:37:07.087Z,31.93
2022-09-07T07:42:21.199Z,31.39
2022-09-07T07:44:48.721Z,31.40
2022-09-07T07:47:15.783Z,31.16
2022-09-07T07:49:42.628Z,29.17
2022-09-07T07:54:56.292Z,29.37
2022-09-07T07:57:23.391Z,30.23
2022-09-07T07:59:52.347Z,29.53
2022-09-07T08:02:20.986Z,29.58
2022-09-07T08:04:48.087Z,29.25
2022-09-07T08:07:18.250Z,28.31
2022-09-07T08:09:47.706Z,27.56
2022-09-07T08:12:16.814Z,26.71
2022-09-07T08:14:44.159Z,26.79
2022-09-07T08:17:12.341Z,27.28
2022-09-07T08:19:39.494Z,27.97
2022-09-07T08:22:06.758Z,27.15
2022-09-07T08:24:33.708Z,27.05
2022-09-07T08:27:01.473Z,26.76
2022-09-07T08:29:33.413Z,27.11
2022-09-07T08:32:01.413Z,28.02
2022-09-07T08:34:46.801Z,28.38
2022-09-07T08:37:15.224Z,28.08
2022-09-07T08:39:42.904Z,27.80
2022-09-07T08:43:05.706Z,27.69
2022-09-07T08:45:35.219Z,27.56
2022-09-07T08:48:04.859Z,27.60
2022-09-07T08:50:34.707Z,25.79
2022-09-07T08:53:21.870Z,26.84
2022-09-07T08:55:58.549Z,27.31
2022-09-07T08:58:49.231Z,27.21
2022-09-07T09:01:37.066Z,25.46
2022-09-07T09:04:23.197Z,25.85
2022-09-07T09:07:08.933Z,26.04
2022-09-07T09:09:38.911Z,26.59
2022-09-07T09:12:32.358Z,26.58
2022-09-07T09:15:21.352Z,26.44
2022-09-07T09:17:56.804Z,24.78
2022-09-07T09:20:49.280Z,24.05
2022-09-07T09:23:18.044Z,25.03
2022-09-07T09:25:52.058Z,25.65
2022-09-07T09:28:19.423Z,26.05
2022-09-07T09:30:48.070Z,25.89
2022-09-07T09:33:28.478Z,26.04
2022-09-07T09:35:56.561Z,25.57
2022-09-07T09:38:29.405Z,24.21
2022-09-07T09:40:57.532Z,24.33
2022-09-07T09:43:26.024Z,25.12
2022-09-07T09:48:42.248Z,25.57
2022-09-07T09:54:22.542Z,25.64
2022-09-07T09:56:49.907Z,25.10
2022-09-07T10:05:27.775Z,23.29
2022-09-07T10:07:57.491Z,24.23
2022-09-07T10:10:26.252Z,24.95
2022-09-07T10:12:55.233Z,24.99
2022-09-07T10:15:40.559Z,24.95
2022-09-07T10:18:18.648Z,24.86
2022-09-07T10:20:46.785Z,24.91
2022-09-07T10:23:22.357Z,24.96
2022-09-07T10:25:50.509Z,24.95
2022-09-07T10:28:18.989Z,24.99
2022-09-07T10:31:15.535Z,24.96
2022-09-07T10:36:51.621Z,23.77
2022-09-07T10:39:21.254Z,23.26
2022-09-07T10:41:58.511Z,23.83
2022-09-07T10:44:32.321Z,23.39
2022-09-07T10:47:53.642Z,23.70
2022-09-07T10:50:43.632Z,24.25
2022-09-07T10:53:41.451Z,24.35
2022-09-07T10:56:18.686Z,24.58
2022-09-07T10:59:21.576Z,24.35
2022-09-07T11:01:54.220Z,24.41
2022-09-07T11:04:55.431Z,23.98
2022-09-07T11:07:45.490Z,23.40
2022-09-07T11:10:41.619Z,23.37
2022-09-07T11:13:30.476Z,23.71
2022-09-07T11:15:58.520Z,23.65
2022-09-07T11:18:40.428Z,23.34
2022-09-07T11:21:13.295Z,22.86
2022-09-07T11:24:02.627Z,23.30
2022-09-07T11:26:51.068Z,23.38
2022-09-07T11:29:29.662Z,22.93
2022-09-07T11:32:03.042Z,23.37
2022-09-07T11:34:34.097Z,23.39
2022-09-07T11:37:03.808Z,22.98
2022-09-07T11:39:35.576Z,23.09
2022-09-07T11:45:20.668Z,22.28
2022-09-07T11:48:19.440Z,22.42
2022-09-07T11:50:54.620Z,22.20
2022-09-07T11:53:23.658Z,21.57
2022-09-07T11:55:55.341Z,22.80
2022-09-07T11:58:35.076Z,22.94
2022-09-07T12:01:11.137Z,23.10
2022-09-07T12:03:59.468Z,22.71
2022-09-07T12:07:00.944Z,22.11
2022-09-07T12:09:44.074Z,22.09
2022-09-07T12:12:27.816Z,22.51
2022-09-07T12:15:00.931Z,22.27
2022-09-07T12:17:34.971Z,22.59
2022-09-07T12:20:22.553Z,23.10
2022-09-07T12:23:06.716Z,23.05
2022-09-07T12:25:34.800Z,23.09
2022-09-07T12:28:03.368Z,23.71
2022-09-07T12:30:35.818Z,24.06
2022-09-07T12:33:06.077Z,24.31
2022-09-07T12:35:39.876Z,24.54
2022-09-07T12:38:19.518Z,24.87
2022-09-07T12:40:59.561Z,25.06
2022-09-07T12:43:35.741Z,25.14
2022-09-07T12:46:03.880Z,25.27
2022-09-07T12:48:44.825Z,25.46
2022-09-07T12:54:19.859Z,25.75
2022-09-07T12:59:52.657Z,25.99
2022-09-07T13:02:29.258Z,26.33
2022-09-07T13:05:02.321Z,26.33
2022-09-07T13:07:53.456Z,26.51
2022-09-07T13:10:36.101Z,26.62
2022-09-07T13:13:08.035Z,26.80
2022-09-07T13:15:40.724Z,26.71
2022-09-07T13:18:29.872Z,26.79
2022-09-07T13:21:18.765Z,26.95
2022-09-07T13:27:07.513Z,27.09
2022-09-07T13:29:42.020Z,27.19
2022-09-07T13:32:11.259Z,27.27
2022-09-07T13:35:11.882Z,27.23
2022-09-07T13:37:51.628Z,27.08
2022-09-07T13:40:27.596Z,27.13
2022-09-07T13:42:55.457Z,26.87
2022-09-07T13:45:49.161Z,26.74
2022-09-07T13:48:26.823Z,26.79
2022-09-07T13:50:59.811Z,26.87
2022-09-07T13:53:45.908Z,26.87
2022-09-07T13:56:40.093Z,27.11
2022-09-07T13:59:25.676Z,27.31
2022-09-07T14:01:54.093Z,27.53
2022-09-07T14:04:28.849Z,27.61
2022-09-07T14:07:03.149Z,27.76
2022-09-07T14:09:34.022Z,27.89
2022-09-07T14:12:04.465Z,28.14
2022-09-07T14:14:33.327Z,28.11
2022-09-07T14:17:00.817Z,28.05
2022-09-07T14:19:40.046Z,28.14
2022-09-07T14:22:17.983Z,28.23
2022-09-07T14:25:01.484Z,28.16
2022-09-07T14:27:39.792Z,28.22
2022-09-07T14:30:21.076Z,28.40
2022-09-07T14:32:52.771Z,28.39
2022-09-07T14:35:27.075Z,28.69
2022-09-07T14:37:55.347Z,28.66
2022-09-07T14:40:24.117Z,28.83
2022-09-07T14:42:53.686Z,28.90
2022-09-07T14:45:23.853Z,29.10
2022-09-07T14:47:52.919Z,29.36
2022-09-07T14:50:35.561Z,29.57
2022-09-07T14:56:03.693Z,29.73
2022-09-07T14:58:32.312Z,29.84
2022-09-07T15:01:38.051Z,30.01
2022-09-07T15:04:17.379Z,30.29
2022-09-07T15:07:02.983Z,30.19
2022-09-07T15:09:36.948Z,30.18
2022-09-07T15:12:11.471Z,30.14
2022-09-07T15:14:38.823Z,30.26
2022-09-07T15:19:54.213Z,30.41
2022-09-07T15:22:22.411Z,30.74
2022-09-07T15:24:49.699Z,30.95
2022-09-07T15:27:21.233Z,30.91
2022-09-07T15:29:48.486Z,31.06
2022-09-07T15:32:17.990Z,31.37
2022-09-07T15:34:46.281Z,31.95
2022-09-07T15:40:01.914Z,31.86
2022-09-07T15:45:18.619Z,32.21
2022-09-07T15:47:52.748Z,32.26
2022-09-07T15:50:23.212Z,32.36
2022-09-07T15:52:51.988Z,32.92
2022-09-07T15:55:19.120Z,32.91
2022-09-07T15:57:52.749Z,33.00
2022-09-07T16:00:24.186Z,32.91
2022-09-07T16:03:07.933Z,33.02
2022-09-07T16:05:35.398Z,33.55
2022-09-07T16:10:54.469Z,34.16
2022-09-07T16:13:24.345Z,33.65
2022-09-07T16:15:52.801Z,33.76
2022-09-07T16:18:20.663Z,34.31
2022-09-07T16:20:52.249Z,33.95
2022-09-07T16:23:19.781Z,34.16
2022-09-07T16:25:57.666Z,34.47
2022-09-07T16:28:25.163Z,34.74
2022-09-07T16:30:52.612Z,35.09
2022-09-07T16:33:19.607Z,35.11
2022-09-07T16:35:59.819Z,34.81
2022-09-07T16:41:22.943Z,35.53
2022-09-07T16:43:50.166Z,36.16
2022-09-07T16:46:18.757Z,36.08
2022-09-07T16:48:45.618Z,35.94
2022-09-07T16:51:14.441Z,36.02
2022-09-07T16:53:41.443Z,35.94
2022-09-07T16:56:12.979Z,36.12
2022-09-07T16:58:42.334Z,36.24
2022-09-07T17:01:11.645Z,36.13
2022-09-07T17:03:39.510Z,36.37
2022-09-07T17:06:09.005Z,36.36
2022-09-07T17:08:36.248Z,36.51
2022-09-07T17:11:07.730Z,36.47
2022-09-07T17:13:35.373Z,36.56
2022-09-07T17:16:13.126Z,36.64
2022-09-07T17:21:30.098Z,36.94
2022-09-07T17:23:56.939Z,37.05
2022-09-07T17:26:28.054Z,37.45
2022-09-07T17:28:59.749Z,37.14
2022-09-07T17:34:20.115Z,37.33
2022-09-07T17:36:48.196Z,37.37
2022-09-07T17:39:17.633Z,38.23
2022-09-07T17:41:46.229Z,37.51
2022-09-07T17:44:13.587Z,37.99
2022-09-07T17:46:41.362Z,37.97
2022-09-07T17:49:10.375Z,38.28
2022-09-07T17:51:37.312Z,38.74
2022-09-07T17:54:09.945Z,38.58
2022-09-07T17:56:38.680Z,38.53
2022-09-07T18:01:56.060Z,38.36
2022-09-07T18:04:24.198Z,38.13
2022-09-07T18:06:51.695Z,38.27
2022-09-07T18:09:19.913Z,38.33
2022-09-07T18:11:49.095Z,38.49
2022-09-07T18:14:18.245Z,38.93
2022-09-07T18:16:49.400Z,38.90
2022-09-07T18:19:18.394Z,39.63
2022-09-07T18:21:46.508Z,39.46
2022-09-07T18:24:17.225Z,39.49
2022-09-07T18:26:50.161Z,39.41
2022-09-07T18:29:28.681Z,39.75
2022-09-07T18:31:57.242Z,39.63
2022-09-07T18:34:25.438Z,39.74
2022-09-07T18:36:52.808Z,39.93
2022-09-07T18:39:19.608Z,40.17
2022-09-07T18:41:46.606Z,39.80
2022-09-07T18:47:01.391Z,40.58
2022-09-07T18:49:28.749Z,40.57
2022-09-07T18:54:42.610Z,40.75
2022-09-07T18:57:09.968Z,40.92
2022-09-07T18:59:37.021Z,40.72
2022-09-07T19:02:06.238Z,41.26
2022-09-07T19:07:25.005Z,40.97
2022-09-07T19:09:55.843Z,41.13
2022-09-07T19:12:24.579Z,41.30
2022-09-07T19:14:51.815Z,40.92
2022-09-07T19:17:19.466Z,41.23
2022-09-07T19:19:46.410Z,41.25
2022-09-07T19:22:13.310Z,41.88
2022-09-07T19:24:40.313Z,42.00
2022-09-07T19:27:07.365Z,42.21
2022-09-07T19:29:34.214Z,42.01
2022-09-07T19:32:07.839Z,41.76
2022-09-07T19:34:38.969Z,42.38
2022-09-07T19:37:06.752Z,42.64
2022-09-07T19:39:33.735Z,42.37
2022-09-07T19:42:00.858Z,43.13
2022-09-07T19:44:28.075Z,43.16
2022-09-07T19:46:55.419Z,43.14
2022-09-07T19:49:23.186Z,43.16
2022-09-07T19:51:52.217Z,42.50
2022-09-07T19:54:19.122Z,42.79
2022-09-07T19:56:46.112Z,42.49
2022-09-07T19:59:13.332Z,43.11
2022-09-07T20:01:43.988Z,43.44
2022-09-07T20:04:14.766Z,43.10
2022-09-07T20:06:44.421Z,43.35
2022-09-07T20:09:11.526Z,43.63
2022-09-07T20:11:40.825Z,43.22
2022-09-07T20:14:09.794Z,43.57
2022-09-07T20:16:38.639Z,43.31
2022-09-07T20:19:07.392Z,43.13
2022-09-07T20:21:34.344Z,43.38
2022-09-07T20:24:01.499Z,43.16
2022-09-07T20:26:30.503Z,43.13
2022-09-07T20:29:23.289Z,43.11
2022-09-07T20:31:47.261Z,43.03
2022-09-07T20:34:14.449Z,43.08
2022-09-07T20:36:41.202Z,43.04
2022-09-07T20:39:08.497Z,42.99
2022-09-07T20:41:35.391Z,42.99
2022-09-07T20:44:03.507Z,43.09
2022-09-07T20:46:30.871Z,43.01
2022-09-07T20:48:57.957Z,43.14
2022-09-07T20:51:24.708Z,43.27
2022-09-07T20:53:51.559Z,43.33
2022-09-07T20:56:20.526Z,43.34
2022-09-07T20:58:47.685Z,43.45
2022-09-07T21:01:17.904Z,43.40
2022-09-07T21:03:49.024Z,43.44
2022-09-07T21:06:16.342Z,43.49
2022-09-07T21:08:44.134Z,43.50
2022-09-07T21:11:12.689Z,43.67
2022-09-07T21:13:39.693Z,43.71
2022-09-07T21:16:09.089Z,43.99
2022-09-07T21:18:37.489Z,44.01
2022-09-07T21:21:21.426Z,44.18
2022-09-07T21:23:48.663Z,44.12
2022-09-07T21:26:15.545Z,44.10
2022-09-07T21:28:42.490Z,44.10
2022-09-07T21:31:09.537Z,44.04
2022-09-07T21:33:37.417Z,44.18
2022-09-07T21:36:09.447Z,44.23
2022-09-07T21:38:36.755Z,45.07
2022-09-07T21:41:11.154Z,44.78
2022-09-07T21:43:38.030Z,44.91
2022-09-07T21:46:08.982Z,44.94
2022-09-07T21:48:36.037Z,45.44
2022-09-07T21:51:03.093Z,45.74
2022-09-07T21:53:30.348Z,45.07
2022-09-07T21:55:58.571Z,45.63
2022-09-07T21:58:26.374Z,45.34
2022-09-07T22:00:54.006Z,45.75
2022-09-07T22:03:21.833Z,45.30
2022-09-07T22:05:48.679Z,45.58
2022-09-07T22:08:16.043Z,45.60
2022-09-07T22:10:44.117Z,45.81
2022-09-07T22:13:11.584Z,45.59
2022-09-07T22:15:39.911Z,45.51
2022-09-07T22:18:11.936Z,45.38
2022-09-07T22:20:39.204Z,45.59
2022-09-07T22:23:06.147Z,45.52
2022-09-07T22:25:33.511Z,45.62
2022-09-07T22:28:00.359Z,45.69
2022-09-07T22:30:27.408Z,45.75
2022-09-07T22:32:54.253Z,46.17
2022-09-07T22:35:21.615Z,45.90
2022-09-07T22:37:48.472Z,46.41
2022-09-07T22:40:15.582Z,46.29
2022-09-07T22:42:42.487Z,46.48
2022-09-07T22:45:10.254Z,46.22
2022-09-07T22:47:37.104Z,46.61
2022-09-07T22:50:04.358Z,46.68
2022-09-07T22:52:31.210Z,46.56
2022-09-07T22:54:58.063Z,47.29
2022-09-07T22:57:24.913Z,47.10
2022-09-07T22:59:51.858Z,47.27
2022-09-07T23:02:18.804Z,46.97
2022-09-07T23:04:45.754Z,48.05
2022-09-07T23:07:12.812Z,47.78
2022-09-07T23:09:39.614Z,47.53
2022-09-07T23:12:06.813Z,47.57
2022-09-07T23:14:33.869Z,48.72
2022-09-07T23:17:00.723Z,48.39
2022-09-07T23:19:27.977Z,48.21
2022-09-07T23:21:55.335Z,48.68
2022-09-07T23:24:22.182Z,49.05
2022-09-07T23:26:49.139Z,49.14
2022-09-07T23:29:15.997Z,48.42
2022-09-07T23:31:43.071Z,49.08
2022-09-07T23:34:10.193Z,48.90
2022-09-07T23:36:37.150Z,48.94
2022-09-07T23:39:04.300Z,48.95
2022-09-07T23:41:31.149Z,48.54
2022-09-07T23:43:58.095Z,48.69
2022-09-07T23:46:24.977Z,48.78
2022-09-07T23:48:51.896Z,48.66
2022-09-07T23:51:23.563Z,49.95
2022-09-07T23:53:51.111Z,50.23
2022-09-07T23:56:18.060Z,49.26
2022-09-07T23:58:45.212Z,49.35
